Time;durP1;ratioP1;P1;durP2;ratioP2;P2;SDS_P1;SDS_P2;PMS_P1;PMS_P2;Temp;Humidity;BMP_temperature;BMP_pressure;BME280_temperature;BME280_humidity;BME280_pressure;Samples;Min_cycle;Max_cycle;Signal;HPM_P1;HPM_P2
2022/08/31 00:05:44;;;;;;;6.92;4.87;;;;;;;;;;1750786;82;21044;-72
2022/08/31 00:08:10;;;;;;;6.25;4.83;;;;;;;;;;1747690;82;21059;-72
2022/08/31 00:10:39;;;;;;;6.47;4.42;;;;;;;;;;1754660;82;21098;-72
2022/08/31 00:13:05;;;;;;;8.08;4.55;;;;;;;;;;1741128;82;21059;-72
2022/08/31 00:15:31;;;;;;;6.50;4.47;;;;;;;;;;1753669;82;21051;-72
2022/08/31 00:17:58;;;;;;;7.92;5.28;;;;;;;;;;1751591;82;21052;-72
2022/08/31 00:20:25;;;;;;;6.90;4.70;;;;;;;;;;1747258;82;21055;-72
2022/08/31 00:22:51;;;;;;;8.23;4.55;;;;;;;;;;1753560;82;21063;-72
2022/08/31 00:25:18;;;;;;;7.37;4.50;;;;;;;;;;1753940;82;21417;-72
2022/08/31 00:27:44;;;;;;;9.70;4.87;;;;;;;;;;1753974;82;21031;-72
2022/08/31 00:30:11;;;;;;;6.78;4.75;;;;;;;;;;1748542;82;21047;-72
2022/08/31 00:32:38;;;;;;;6.17;4.87;;;;;;;;;;1753437;82;21488;-72
2022/08/31 00:35:04;;;;;;;6.83;5.12;;;;;;;;;;1754397;81;21008;-72
2022/08/31 00:37:31;;;;;;;9.48;4.60;;;;;;;;;;1750835;81;21039;-72
2022/08/31 00:39:57;;;;;;;7.62;4.72;;;;;;;;;;1753103;81;21048;-71
2022/08/31 00:42:23;;;;;;;6.95;4.90;;;;;;;;;;1735586;82;21532;-72
2022/08/31 00:44:50;;;;;;;7.78;4.87;;;;;;;;;;1723982;82;21016;-72
2022/08/31 00:47:17;;;;;;;8.30;5.03;;;;;;;;;;1744775;82;20996;-72
2022/08/31 00:49:45;;;;;;;7.40;4.70;;;;;;;;;;1746488;82;21000;-72
2022/08/31 00:52:12;;;;;;;8.70;5.00;;;;;;;;;;1739487;82;21043;-72
2022/08/31 00:54:44;;;;;;;7.00;4.75;;;;;;;;;;1751127;82;21020;-72
2022/08/31 00:57:09;;;;;;;7.62;5.45;;;;;;;;;;1744589;80;21060;-72
2022/08/31 00:59:36;;;;;;;7.62;4.90;;;;;;;;;;1752959;81;21051;-72
2022/08/31 01:04:53;;;;;;;7.15;4.92;;;;;;;;;;1677344;79;75254;-70
2022/08/31 01:07:19;;;;;;;7.35;5.47;;;;;;;;;;1677252;84;21538;-70
2022/08/31 01:09:46;;;;;;;9.35;5.72;;;;;;;;;;1646634;86;21079;-70
2022/08/31 01:12:13;;;;;;;8.30;5.80;;;;;;;;;;1675425;86;21094;-70
2022/08/31 01:14:40;;;;;;;9.20;5.42;;;;;;;;;;1675484;86;21088;-70
2022/08/31 01:17:07;;;;;;;11.10;6.42;;;;;;;;;;1673044;86;21047;-70
2022/08/31 01:19:35;;;;;;;8.78;5.53;;;;;;;;;;1670195;86;21612;-70
2022/08/31 01:22:03;;;;;;;7.85;5.53;;;;;;;;;;1674089;84;21068;-71
2022/08/31 01:24:31;;;;;;;11.15;6.30;;;;;;;;;;1677878;84;21100;-71
2022/08/31 01:27:02;;;;;;;10.95;5.90;;;;;;;;;;1677070;84;21091;-71
2022/08/31 01:29:26;;;;;;;8.55;5.60;;;;;;;;;;1642888;87;21510;-71
2022/08/31 01:31:53;;;;;;;8.35;5.37;;;;;;;;;;1617059;88;21054;-71
2022/08/31 01:34:19;;;;;;;7.90;5.65;;;;;;;;;;1669316;86;21059;-72
2022/08/31 01:36:46;;;;;;;8.03;5.65;;;;;;;;;;1674630;85;21123;-72
2022/08/31 01:39:12;;;;;;;9.63;5.95;;;;;;;;;;1682746;84;21082;-71
2022/08/31 01:41:42;;;;;;;8.18;5.67;;;;;;;;;;1660070;86;21125;-71
2022/08/31 01:44:10;;;;;;;9.45;5.20;;;;;;;;;;1642823;86;21055;-70
2022/08/31 01:46:36;;;;;;;10.80;6.00;;;;;;;;;;1679830;85;21100;-70
2022/08/31 01:49:02;;;;;;;9.95;5.67;;;;;;;;;;1675025;86;21074;-71
2022/08/31 01:51:30;;;;;;;9.58;5.72;;;;;;;;;;1675578;86;21570;-71
2022/08/31 01:53:56;;;;;;;10.30;5.60;;;;;;;;;;1673609;84;21034;-71
2022/08/31 01:56:27;;;;;;;8.38;5.60;;;;;;;;;;1677673;84;21055;-71
2022/08/31 01:58:55;;;;;;;11.15;5.75;;;;;;;;;;1674902;86;21561;-71
2022/08/31 02:01:37;;;;;;;8.83;5.85;;;;;;;;;;1667588;85;21065;-69
2022/08/31 02:04:04;;;;;;;7.12;5.25;;;;;;;;;;1674122;85;21137;-71
2022/08/31 02:06:31;;;;;;;8.65;5.03;;;;;;;;;;1634123;88;21625;-70
2022/08/31 02:08:57;;;;;;;8.38;5.40;;;;;;;;;;1669321;85;21049;-70
2022/08/31 02:11:24;;;;;;;9.95;5.20;;;;;;;;;;1635086;86;21082;-71
2022/08/31 02:13:50;;;;;;;7.28;4.67;;;;;;;;;;1665217;85;21060;-70
2022/08/31 02:16:16;;;;;;;10.05;5.40;;;;;;;;;;1667298;84;21480;-70
2022/08/31 02:18:43;;;;;;;11.40;5.72;;;;;;;;;;1687036;84;21189;-71
2022/08/31 02:21:12;;;;;;;8.30;5.60;;;;;;;;;;1682290;84;21043;-70
2022/08/31 02:23:39;;;;;;;11.25;5.70;;;;;;;;;;1665744;86;21530;-70
2022/08/31 02:26:05;;;;;;;7.40;5.28;;;;;;;;;;1666067;86;21129;-70
2022/08/31 02:28:31;;;;;;;8.10;5.10;;;;;;;;;;1665842;86;21063;-71
2022/08/31 02:30:58;;;;;;;9.73;6.05;;;;;;;;;;1665245;86;21072;-70
2022/08/31 02:33:24;;;;;;;11.65;5.53;;;;;;;;;;1665705;86;21071;-69
2022/08/31 02:35:51;;;;;;;8.05;5.55;;;;;;;;;;1665847;86;21087;-71
2022/08/31 02:38:19;;;;;;;7.75;5.28;;;;;;;;;;1665044;85;21047;-71
2022/08/31 02:40:49;;;;;;;8.25;5.28;;;;;;;;;;1665629;86;21083;-71
2022/08/31 02:43:16;;;;;;;6.70;4.90;;;;;;;;;;1665701;86;21077;-71
2022/08/31 02:45:42;;;;;;;9.68;5.25;;;;;;;;;;1665693;86;21040;-71
2022/08/31 02:48:10;;;;;;;7.67;4.97;;;;;;;;;;1665768;86;21137;-72
2022/08/31 02:50:42;;;;;;;7.92;4.85;;;;;;;;;;1665808;86;21578;-71
2022/08/31 02:53:09;;;;;;;8.40;5.35;;;;;;;;;;1665285;84;21036;-71
2022/08/31 02:55:36;;;;;;;9.28;5.58;;;;;;;;;;1665105;85;21550;-71
2022/08/31 02:58:03;;;;;;;7.55;5.00;;;;;;;;;;1665878;86;21613;-71
2022/08/31 03:00:29;;;;;;;9.53;5.58;;;;;;;;;;1665451;86;21083;-71
2022/08/31 03:02:56;;;;;;;9.40;5.42;;;;;;;;;;1665818;86;21601;-71
2022/08/31 03:05:23;;;;;;;8.40;5.42;;;;;;;;;;1665741;86;21142;-71
2022/08/31 03:07:49;;;;;;;7.22;4.92;;;;;;;;;;1665366;86;21056;-71
2022/08/31 03:10:16;;;;;;;9.55;5.92;;;;;;;;;;1665943;85;21023;-70
2022/08/31 03:12:42;;;;;;;10.40;6.15;;;;;;;;;;1665769;85;21076;-71
2022/08/31 03:15:10;;;;;;;11.33;5.75;;;;;;;;;;1668534;85;21074;-71
2022/08/31 03:17:37;;;;;;;9.80;5.87;;;;;;;;;;1673136;84;21072;-70
2022/08/31 03:20:04;;;;;;;9.70;5.60;;;;;;;;;;1664493;86;21575;-70
2022/08/31 03:22:31;;;;;;;10.05;6.20;;;;;;;;;;1666060;86;21523;-70
2022/08/31 03:24:58;;;;;;;8.73;5.70;;;;;;;;;;1665077;85;21094;-71
2022/08/31 03:27:25;;;;;;;8.00;5.58;;;;;;;;;;1665855;86;21094;-70
2022/08/31 03:29:52;;;;;;;9.53;5.70;;;;;;;;;;1665993;85;21079;-70
2022/08/31 03:32:20;;;;;;;10.68;5.58;;;;;;;;;;1663555;86;21082;-70
2022/08/31 03:34:50;;;;;;;9.55;5.92;;;;;;;;;;1665334;85;21044;-71
2022/08/31 03:37:17;;;;;;;10.65;5.10;;;;;;;;;;1666203;86;21167;-71
2022/08/31 03:39:44;;;;;;;7.67;5.30;;;;;;;;;;1665670;86;21108;-71
2022/08/31 03:42:10;;;;;;;8.85;5.75;;;;;;;;;;1665904;86;21531;-70
2022/08/31 03:44:37;;;;;;;10.13;5.67;;;;;;;;;;1665662;86;21119;-70
2022/08/31 03:47:03;;;;;;;8.65;5.60;;;;;;;;;;1664258;84;21462;-71
2022/08/31 03:49:30;;;;;;;11.63;5.58;;;;;;;;;;1665160;85;21039;-70
2022/08/31 03:52:02;;;;;;;8.30;5.40;;;;;;;;;;1660841;85;21055;-70
2022/08/31 03:56:32;;;;;;;8.75;5.55;;;;;;;;;;1811720;79;23748;-71
2022/08/31 03:58:58;;;;;;;7.80;5.55;;;;;;;;;;1792473;80;21203;-71
2022/08/31 04:01:43;;;;;;;12.90;6.12;;;;;;;;;;1792452;80;21141;-71
2022/08/31 04:04:28;;;;;;;14.25;6.00;;;;;;;;;;1774055;80;21604;-71
2022/08/31 04:07:12;;;;;;;49.88;7.50;;;;;;;;;;1764287;80;21107;-71
2022/08/31 04:09:49;;;;;;;12.40;5.40;;;;;;;;;;1656655;85;21140;-71
2022/08/31 04:12:18;;;;;;;22.40;6.20;;;;;;;;;;1759807;80;21570;-72
2022/08/31 04:15:01;;;;;;;14.18;5.47;;;;;;;;;;1767360;80;21111;-71
2022/08/31 04:17:45;;;;;;;9.15;5.37;;;;;;;;;;1786421;80;21032;-71
2022/08/31 04:20:35;;;;;;;10.48;5.50;;;;;;;;;;1784545;80;21056;-71
2022/08/31 04:23:01;;;;;;;8.35;5.20;;;;;;;;;;1769867;80;21068;-71
2022/08/31 04:25:30;;;;;;;7.72;4.90;;;;;;;;;;1788837;80;21012;-71
2022/08/31 04:27:56;;;;;;;8.00;5.20;;;;;;;;;;1791007;80;21096;-71
2022/08/31 04:30:23;;;;;;;8.05;5.10;;;;;;;;;;1785639;80;21032;-71
2022/08/31 04:32:50;;;;;;;8.30;5.65;;;;;;;;;;1773738;80;21060;-71
2022/08/31 04:35:16;;;;;;;8.38;4.85;;;;;;;;;;1734941;80;21067;-71
2022/08/31 04:37:42;;;;;;;8.18;4.72;;;;;;;;;;1775906;80;21095;-72
2022/08/31 04:40:16;;;;;;;9.43;5.05;;;;;;;;;;1791093;80;21516;-71
2022/08/31 04:42:38;;;;;;;10.60;5.92;;;;;;;;;;1775375;80;21052;-71
2022/08/31 04:45:05;;;;;;;8.73;5.10;;;;;;;;;;1761279;81;21103;-71
2022/08/31 04:47:32;;;;;;;9.20;5.17;;;;;;;;;;1774564;80;22196;-71
2022/08/31 04:49:58;;;;;;;9.55;5.35;;;;;;;;;;1771298;80;21079;-71
2022/08/31 04:52:25;;;;;;;9.33;5.35;;;;;;;;;;1786035;80;21036;-71
2022/08/31 04:54:51;;;;;;;10.93;5.45;;;;;;;;;;1780623;80;21053;-72
2022/08/31 04:57:17;;;;;;;7.95;5.00;;;;;;;;;;1777536;81;21077;-71
2022/08/31 04:59:44;;;;;;;6.87;4.28;;;;;;;;;;1771325;81;21528;-71
2022/08/31 05:02:15;;;;;;;9.75;4.47;;;;;;;;;;1726417;82;21519;-71
2022/08/31 05:04:59;;;;;;;9.33;5.15;;;;;;;;;;1757297;81;21615;-71
2022/08/31 05:07:26;;;;;;;8.23;4.90;;;;;;;;;;1777044;81;21033;-72
2022/08/31 05:09:53;;;;;;;7.80;5.03;;;;;;;;;;1768778;81;21104;-72
2022/08/31 05:12:21;;;;;;;7.78;5.00;;;;;;;;;;1750117;81;21022;-72
2022/08/31 05:14:48;;;;;;;8.58;4.60;;;;;;;;;;1765212;79;21097;-72
2022/08/31 05:17:16;;;;;;;6.05;4.03;;;;;;;;;;1761312;80;21021;-71
2022/08/31 05:19:43;;;;;;;5.58;3.77;;;;;;;;;;1772318;81;21064;-72
2022/08/31 05:22:11;;;;;;;7.22;4.10;;;;;;;;;;1773775;81;21049;-72
2022/08/31 05:24:37;;;;;;;7.17;4.67;;;;;;;;;;1777984;81;21115;-73
2022/08/31 05:27:04;;;;;;;4.85;3.75;;;;;;;;;;1761045;81;21152;-73
2022/08/31 05:29:30;;;;;;;5.92;3.90;;;;;;;;;;1753256;81;21194;-73
2022/08/31 05:31:58;;;;;;;5.47;4.05;;;;;;;;;;1759604;81;21037;-73
2022/08/31 05:34:25;;;;;;;6.47;4.00;;;;;;;;;;1761284;81;21207;-73
2022/08/31 05:36:52;;;;;;;5.75;4.30;;;;;;;;;;1747778;82;20978;-73
2022/08/31 05:39:19;;;;;;;5.62;4.20;;;;;;;;;;1769839;79;21089;-72
2022/08/31 05:41:46;;;;;;;5.75;3.67;;;;;;;;;;1765596;79;21048;-73
2022/08/31 05:44:12;;;;;;;7.33;3.67;;;;;;;;;;1764854;81;21052;-73
2022/08/31 05:46:39;;;;;;;9.43;4.53;;;;;;;;;;1775431;81;21056;-73
2022/08/31 05:49:06;;;;;;;11.00;4.65;;;;;;;;;;1760320;79;21465;-73
2022/08/31 05:51:34;;;;;;;6.65;4.35;;;;;;;;;;1755485;79;21042;-73
2022/08/31 05:54:01;;;;;;;6.62;3.77;;;;;;;;;;1751531;81;21068;-73
2022/08/31 05:56:28;;;;;;;7.47;4.22;;;;;;;;;;1772289;80;21060;-73
2022/08/31 05:58:55;;;;;;;12.53;4.55;;;;;;;;;;1779836;80;21543;-73
2022/08/31 06:01:29;;;;;;;5.00;4.35;;;;;;;;;;1784807;78;21038;-73
2022/08/31 06:03:56;;;;;;;11.55;4.70;;;;;;;;;;1783601;80;22153;-72
2022/08/31 06:06:23;;;;;;;8.70;5.53;;;;;;;;;;1773425;78;21582;-72
2022/08/31 06:08:50;;;;;;;9.05;5.17;;;;;;;;;;1778858;78;21064;-73
2022/08/31 06:11:18;;;;;;;8.15;4.17;;;;;;;;;;1779646;80;21080;-74
2022/08/31 06:13:46;;;;;;;7.92;4.62;;;;;;;;;;1785743;80;21064;-74
2022/08/31 06:16:12;;;;;;;9.68;4.62;;;;;;;;;;1788803;80;21091;-74
2022/08/31 06:18:40;;;;;;;8.48;4.75;;;;;;;;;;1790586;80;21029;-74
2022/08/31 06:21:08;;;;;;;9.38;4.12;;;;;;;;;;1783528;80;21009;-74
2022/08/31 06:23:35;;;;;;;10.38;4.47;;;;;;;;;;1768836;80;21009;-74
2022/08/31 06:26:05;;;;;;;7.55;4.20;;;;;;;;;;1789127;80;21014;-76
2022/08/31 06:28:32;;;;;;;7.90;4.30;;;;;;;;;;1771375;80;21555;-75
2022/08/31 06:31:00;;;;;;;6.80;4.00;;;;;;;;;;1783630;78;21013;-75
2022/08/31 06:33:28;;;;;;;7.25;3.17;;;;;;;;;;1774678;80;21087;-75
2022/08/31 06:35:58;;;;;;;8.75;3.52;;;;;;;;;;1780022;80;21103;-75
2022/08/31 06:38:42;;;;;;;6.80;3.60;;;;;;;;;;1773753;80;21044;-76
2022/08/31 06:41:28;;;;;;;6.60;3.30;;;;;;;;;;1778513;79;21028;-75
2022/08/31 06:44:04;;;;;;;6.67;3.50;;;;;;;;;;1781005;80;21068;-76
2022/08/31 06:46:32;;;;;;;6.00;3.40;;;;;;;;;;1780085;79;21492;-75
2022/08/31 06:49:03;;;;;;;6.47;3.37;;;;;;;;;;1763923;80;21048;-76
2022/08/31 06:51:35;;;;;;;3.98;3.08;;;;;;;;;;1766220;80;21056;-76
2022/08/31 06:54:00;;;;;;;6.45;3.25;;;;;;;;;;1772652;80;21572;-76
2022/08/31 06:56:43;;;;;;;4.55;2.85;;;;;;;;;;1709143;83;21069;-76
2022/08/31 06:59:28;;;;;;;4.72;3.08;;;;;;;;;;1764567;80;21080;-76
2022/08/31 07:02:11;;;;;;;4.20;3.22;;;;;;;;;;1772979;80;21057;-79
2022/08/31 07:04:38;;;;;;;5.22;3.70;;;;;;;;;;1760561;81;21096;-76
2022/08/31 07:07:05;;;;;;;8.88;3.10;;;;;;;;;;1747892;82;21029;-76
2022/08/31 07:09:32;;;;;;;6.72;2.87;;;;;;;;;;1757605;81;21570;-75
2022/08/31 07:11:59;;;;;;;10.55;3.33;;;;;;;;;;1768759;81;21056;-74
2022/08/31 07:14:26;;;;;;;5.95;3.17;;;;;;;;;;1778139;81;21029;-74
2022/08/31 07:16:55;;;;;;;9.15;2.80;;;;;;;;;;1777427;81;21044;-74
2022/08/31 07:19:22;;;;;;;5.40;2.77;;;;;;;;;;1770362;81;20957;-75
2022/08/31 07:21:49;;;;;;;5.12;2.90;;;;;;;;;;1763590;81;21056;-75
2022/08/31 07:24:21;;;;;;;5.08;3.20;;;;;;;;;;1757291;81;21153;-75
2022/08/31 07:26:48;;;;;;;3.87;2.75;;;;;;;;;;1759450;81;21061;-75
2022/08/31 07:29:17;;;;;;;5.03;2.72;;;;;;;;;;1760860;80;21014;-74
2022/08/31 07:31:45;;;;;;;5.45;3.05;;;;;;;;;;1757939;81;21052;-73
2022/08/31 07:34:13;;;;;;;5.62;2.90;;;;;;;;;;1759012;81;21076;-73
2022/08/31 07:42:17;;;;;;;2.75;2.30;;;;;;;;;;1745313;81;21053;-73
2022/08/31 07:44:46;;;;;;;4.60;2.45;;;;;;;;;;1758787;80;21457;-73
2022/08/31 07:47:13;;;;;;;4.00;2.50;;;;;;;;;;1766355;81;21379;-74
2022/08/31 07:49:50;;;;;;;3.75;2.50;;;;;;;;;;1758837;81;21052;-73
2022/08/31 07:52:14;;;;;;;6.83;2.40;;;;;;;;;;1763826;80;21029;-73
2022/08/31 07:54:52;;;;;;;5.28;2.20;;;;;;;;;;1661072;85;21044;-76
2022/08/31 07:57:21;;;;;;;4.67;2.20;;;;;;;;;;1759488;80;21025;-74
2022/08/31 07:59:49;;;;;;;5.35;2.20;;;;;;;;;;1760675;80;20974;-74
2022/08/31 08:02:17;;;;;;;2.90;1.98;;;;;;;;;;1762175;81;21044;-76
2022/08/31 08:04:45;;;;;;;4.12;2.40;;;;;;;;;;1762632;81;21029;-78
2022/08/31 08:07:32;;;;;;;6.22;2.35;;;;;;;;;;1709938;82;21116;-75
2022/08/31 08:10:00;;;;;;;6.67;2.60;;;;;;;;;;1762898;80;21513;-74
2022/08/31 08:12:35;;;;;;;5.12;2.30;;;;;;;;;;1760517;81;21032;-73
2022/08/31 08:15:04;;;;;;;2.80;1.90;;;;;;;;;;1693747;81;21068;-72
2022/08/31 08:17:32;;;;;;;3.70;1.82;;;;;;;;;;1695099;81;21060;-72
2022/08/31 08:20:00;;;;;;;4.10;2.60;;;;;;;;;;1753331;80;21441;-73
2022/08/31 08:22:27;;;;;;;5.22;2.15;;;;;;;;;;1760511;81;21021;-71
2022/08/31 08:25:05;;;;;;;4.37;2.40;;;;;;;;;;1678469;82;20995;-70
2022/08/31 08:27:34;;;;;;;;;;;;;;;;;;1697186;84;21065;-69
2022/08/31 08:30:03;;;;;;;4.60;2.50;;;;;;;;;;1698005;84;20145;-71
2022/08/31 08:32:30;;;;;;;4.22;2.40;;;;;;;;;;1772700;81;21063;-70
2022/08/31 08:34:57;;;;;;;5.22;2.50;;;;;;;;;;1766828;79;21177;-73
2022/08/31 08:37:26;;;;;;;5.28;2.40;;;;;;;;;;1769215;81;21065;-72
2022/08/31 08:39:53;;;;;;;5.37;2.60;;;;;;;;;;1761181;81;21056;-73
2022/08/31 08:42:22;;;;;;;6.53;2.15;;;;;;;;;;1761267;81;21095;-73
2022/08/31 08:44:49;;;;;;;3.77;2.00;;;;;;;;;;1758488;81;21025;-73
2022/08/31 08:47:19;;;;;;;4.30;2.20;;;;;;;;;;1760517;81;21001;-73
2022/08/31 08:49:49;;;;;;;4.47;2.40;;;;;;;;;;1765561;81;21076;-74
2022/08/31 08:52:17;;;;;;;3.90;2.30;;;;;;;;;;1761831;81;21500;-72
2022/08/31 08:54:44;;;;;;;3.42;2.22;;;;;;;;;;1770687;80;21053;-72
2022/08/31 08:57:13;;;;;;;3.20;2.30;;;;;;;;;;1766324;81;21630;-72
2022/08/31 08:59:41;;;;;;;4.37;2.40;;;;;;;;;;1759120;81;21092;-73
2022/08/31 09:02:09;;;;;;;6.58;2.30;;;;;;;;;;1758571;81;21076;-71
2022/08/31 09:04:43;;;;;;;2.72;2.30;;;;;;;;;;1756498;81;20993;-71
2022/08/31 09:07:36;;;;;;;4.17;2.27;;;;;;;;;;1742330;81;21009;-71
2022/08/31 09:10:14;;;;;;;5.40;2.52;;;;;;;;;;1763822;81;21044;-72
2022/08/31 09:13:00;;;;;;;3.25;2.20;;;;;;;;;;1776454;81;21068;-71
2022/08/31 09:15:31;;;;;;;3.45;2.27;;;;;;;;;;1776349;80;21064;-71
2022/08/31 09:18:11;;;;;;;3.87;2.00;;;;;;;;;;1776821;81;21108;-72
2022/08/31 09:20:40;;;;;;;3.47;2.20;;;;;;;;;;1776434;80;21040;-72
2022/08/31 09:23:06;;;;;;;3.87;2.37;;;;;;;;;;1776597;81;21088;-72
2022/08/31 09:25:48;;;;;;;4.03;2.15;;;;;;;;;;1775630;80;21092;-72
2022/08/31 09:28:35;;;;;;;4.50;2.10;;;;;;;;;;1774859;81;21081;-71
2022/08/31 09:31:01;;;;;;;3.47;2.10;;;;;;;;;;1774197;81;21059;-71
2022/08/31 09:33:28;;;;;;;5.55;2.33;;;;;;;;;;1776301;80;20994;-72
2022/08/31 09:36:14;;;;;;;4.90;2.70;;;;;;;;;;1753284;80;21579;-71
2022/08/31 09:38:42;;;;;;;6.15;2.85;;;;;;;;;;1746578;81;21041;-72
2022/08/31 09:41:19;;;;;;;6.10;2.25;;;;;;;;;;1774101;81;21092;-72
2022/08/31 09:43:46;;;;;;;3.50;1.80;;;;;;;;;;1774129;81;21088;-72
2022/08/31 09:46:20;;;;;;;2.85;2.00;;;;;;;;;;1745742;82;21044;-72
2022/08/31 09:48:50;;;;;;;3.27;2.05;;;;;;;;;;1745801;82;20996;-71
2022/08/31 09:51:24;;;;;;;3.98;2.20;;;;;;;;;;1745934;82;21036;-71
2022/08/31 09:56:53;;;;;;;4.75;2.30;;;;;;;;;;1775618;81;21034;-71
2022/08/31 09:59:22;;;;;;;2.62;1.98;;;;;;;;;;1734954;82;21096;-71
2022/08/31 10:01:47;;;;;;;4.47;2.12;;;;;;;;;;1716956;83;21297;-71
2022/08/31 10:04:15;;;;;;;3.15;2.40;;;;;;;;;;1784600;80;21540;-71
2022/08/31 10:06:56;;;;;;;3.98;2.02;;;;;;;;;;1785035;80;21100;-70
2022/08/31 10:09:25;;;;;;;10.90;2.58;;;;;;;;;;1784737;80;21005;-70
2022/08/31 10:11:53;;;;;;;4.70;2.05;;;;;;;;;;1768321;80;21036;-70
2022/08/31 10:14:21;;;;;;;3.60;2.17;;;;;;;;;;1755625;82;21032;-70
2022/08/31 10:16:56;;;;;;;3.90;2.10;;;;;;;;;;1755398;82;21095;-70
2022/08/31 10:19:31;;;;;;;3.67;2.10;;;;;;;;;;1762471;80;21025;-71
2022/08/31 10:22:09;;;;;;;7.47;2.30;;;;;;;;;;1784779;80;21085;-70
2022/08/31 10:24:49;;;;;;;3.85;2.15;;;;;;;;;;1784950;80;21091;-71
2022/08/31 10:27:20;;;;;;;4.03;2.00;;;;;;;;;;1783561;80;21045;-71
2022/08/31 10:29:53;;;;;;;2.77;2.20;;;;;;;;;;1787005;80;20985;-71
2022/08/31 10:32:24;;;;;;;3.75;2.27;;;;;;;;;;1773845;80;21001;-70
2022/08/31 10:35:04;;;;;;;3.80;2.00;;;;;;;;;;1755766;82;21115;-71
2022/08/31 10:37:34;;;;;;;4.12;1.98;;;;;;;;;;1755670;82;21500;-71
2022/08/31 10:40:04;;;;;;;11.68;2.90;;;;;;;;;;1755795;82;21041;-71
2022/08/31 10:42:36;;;;;;;3.75;2.25;;;;;;;;;;1752064;82;21166;-71
2022/08/31 10:45:14;;;;;;;4.55;2.30;;;;;;;;;;1762106;80;21032;-71
2022/08/31 10:47:43;;;;;;;5.33;2.75;;;;;;;;;;1786636;80;21063;-70
2022/08/31 10:50:10;;;;;;;3.55;2.02;;;;;;;;;;1784450;80;21052;-70
2022/08/31 10:52:44;;;;;;;2.60;2.00;;;;;;;;;;1761557;80;21598;-70
2022/08/31 10:55:16;;;;;;;3.52;2.30;;;;;;;;;;1771468;80;21061;-70
2022/08/31 10:57:48;;;;;;;2.42;2.10;;;;;;;;;;1774344;80;21069;-70
2022/08/31 11:03:12;;;;;;;3.58;2.25;;;;;;;;;;1769915;81;21096;-71
2022/08/31 11:05:43;;;;;;;7.17;2.52;;;;;;;;;;1769403;81;21017;-70
2022/08/31 11:08:18;;;;;;;7.62;3.30;;;;;;;;;;1740015;81;21076;-69
2022/08/31 11:10:47;;;;;;;6.03;3.00;;;;;;;;;;1754328;81;21088;-70
2022/08/31 11:13:35;;;;;;;3.40;2.58;;;;;;;;;;1740942;81;21048;-69
2022/08/31 11:16:05;;;;;;;7.58;2.83;;;;;;;;;;1740595;82;21045;-69
2022/08/31 11:18:51;;;;;;;8.23;2.98;;;;;;;;;;1746048;81;21052;-70
2022/08/31 11:21:33;;;;;;;4.28;2.50;;;;;;;;;;1758251;81;21009;-68
2022/08/31 11:24:02;;;;;;;5.60;2.70;;;;;;;;;;1757605;81;21071;-70
2022/08/31 11:26:40;;;;;;;7.87;2.87;;;;;;;;;;1756809;81;21122;-70
2022/08/31 11:29:12;;;;;;;10.23;3.05;;;;;;;;;;1760825;81;21088;-69
2022/08/31 11:31:39;;;;;;;5.30;3.27;;;;;;;;;;1744177;81;21061;-70
2022/08/31 11:34:12;;;;;;;7.33;3.50;;;;;;;;;;1750041;81;21115;-70
2022/08/31 11:36:42;;;;;;;6.30;3.52;;;;;;;;;;1751543;81;21025;-70
2022/08/31 11:39:10;;;;;;;5.10;3.10;;;;;;;;;;1751238;81;21333;-72
2022/08/31 11:41:38;;;;;;;5.08;2.80;;;;;;;;;;1771370;79;21016;-71
2022/08/31 11:44:06;;;;;;;3.22;2.40;;;;;;;;;;1761424;81;21018;-71
2022/08/31 11:46:36;;;;;;;3.08;2.37;;;;;;;;;;1764831;81;21522;-72
2022/08/31 11:49:04;;;;;;;13.20;2.72;;;;;;;;;;1760339;81;21778;-72
2022/08/31 11:51:32;;;;;;;7.15;2.52;;;;;;;;;;1770431;80;21015;-73
2022/08/31 11:54:00;;;;;;;5.67;2.45;;;;;;;;;;1764355;81;21509;-73
2022/08/31 11:56:34;;;;;;;4.97;2.55;;;;;;;;;;1766183;80;21529;-72
2022/08/31 11:59:19;;;;;;;3.60;2.58;;;;;;;;;;1757151;81;21017;-72
2022/08/31 12:01:45;;;;;;;5.55;2.72;;;;;;;;;;1760347;81;21474;-73
2022/08/31 12:04:30;;;;;;;5.40;2.60;;;;;;;;;;1759232;81;21556;-72
2022/08/31 12:06:58;;;;;;;3.98;2.62;;;;;;;;;;1762040;81;21012;-73
2022/08/31 12:09:35;;;;;;;5.72;2.92;;;;;;;;;;1775116;81;20970;-72
2022/08/31 12:12:05;;;;;;;3.92;2.87;;;;;;;;;;1776715;81;21033;-72
2022/08/31 12:14:55;;;;;;;4.53;2.70;;;;;;;;;;1766021;79;21020;-72
2022/08/31 12:17:32;;;;;;;5.05;2.60;;;;;;;;;;1771579;81;21002;-72
2022/08/31 12:20:15;;;;;;;3.87;2.65;;;;;;;;;;1753026;81;21029;-72
2022/08/31 12:25:40;;;;;;;3.70;2.80;;;;;;;;;;1749964;81;21064;-72
2022/08/31 12:28:23;;;;;;;4.08;2.60;;;;;;;;;;1762991;79;21138;-72
2022/08/31 12:30:51;;;;;;;4.33;2.65;;;;;;;;;;1750584;81;21095;-72
2022/08/31 12:33:18;;;;;;;3.33;2.30;;;;;;;;;;1775662;81;21516;-72
2022/08/31 12:35:48;;;;;;;3.27;2.40;;;;;;;;;;1771507;81;21017;-72
2022/08/31 12:38:17;;;;;;;4.90;2.45;;;;;;;;;;1775368;81;21131;-72
2022/08/31 12:40:44;;;;;;;4.28;2.52;;;;;;;;;;1777647;79;20990;-72
2022/08/31 12:43:21;;;;;;;4.75;2.72;;;;;;;;;;1794266;79;21350;-72
2022/08/31 12:46:06;;;;;;;5.42;2.50;;;;;;;;;;1776956;79;21033;-72
2022/08/31 12:48:51;;;;;;;8.35;2.60;;;;;;;;;;1754140;81;21095;-72
2022/08/31 12:51:22;;;;;;;4.62;2.20;;;;;;;;;;1763906;81;21040;-72
2022/08/31 12:54:07;;;;;;;7.20;2.65;;;;;;;;;;1706036;83;21063;-72
2022/08/31 12:56:39;;;;;;;3.77;2.33;;;;;;;;;;1734097;82;21091;-72
2022/08/31 12:59:16;;;;;;;4.20;2.35;;;;;;;;;;1729884;82;21056;-72
2022/08/31 13:01:43;;;;;;;3.37;2.35;;;;;;;;;;1728989;81;21125;-72
2022/08/31 13:04:09;;;;;;;2.98;2.20;;;;;;;;;;1734959;82;21040;-72
2022/08/31 13:06:36;;;;;;;6.28;2.30;;;;;;;;;;1733847;82;21079;-73
2022/08/31 13:09:02;;;;;;;3.60;2.33;;;;;;;;;;1724788;82;21058;-72
2022/08/31 13:11:33;;;;;;;5.55;2.65;;;;;;;;;;1763974;81;21072;-72
2022/08/31 13:14:08;;;;;;;5.22;2.58;;;;;;;;;;1765347;81;21001;-73
2022/08/31 13:16:37;;;;;;;4.70;2.65;;;;;;;;;;1760145;79;21081;-73
2022/08/31 13:19:04;;;;;;;3.70;2.30;;;;;;;;;;1771303;81;20997;-74
2022/08/31 13:21:31;;;;;;;3.02;2.02;;;;;;;;;;1758044;81;20968;-73
2022/08/31 13:24:07;;;;;;;4.85;2.25;;;;;;;;;;1768503;81;21509;-72
2022/08/31 13:26:34;;;;;;;3.58;2.10;;;;;;;;;;1763748;81;21500;-73
2022/08/31 13:29:03;;;;;;;2.80;2.15;;;;;;;;;;1779578;79;21015;-73
2022/08/31 13:31:31;;;;;;;3.12;2.30;;;;;;;;;;1773581;80;21490;-73
2022/08/31 13:34:00;;;;;;;4.55;2.40;;;;;;;;;;1770205;80;21059;-73
2022/08/31 13:36:33;;;;;;;4.50;2.30;;;;;;;;;;1754448;81;21052;-73
2022/08/31 13:39:11;;;;;;;7.53;2.67;;;;;;;;;;1756190;81;21053;-73
2022/08/31 13:41:39;;;;;;;3.42;2.05;;;;;;;;;;1753880;81;21072;-73
2022/08/31 13:44:07;;;;;;;5.28;2.33;;;;;;;;;;1759601;81;21068;-73
2022/08/31 13:46:35;;;;;;;6.05;2.72;;;;;;;;;;1750763;81;21599;-72
2022/08/31 13:49:03;;;;;;;4.25;2.37;;;;;;;;;;1770961;81;21080;-72
2022/08/31 13:51:39;;;;;;;4.30;2.40;;;;;;;;;;1770202;81;21095;-72
2022/08/31 13:54:07;;;;;;;4.03;2.30;;;;;;;;;;1761090;80;21050;-74
2022/08/31 13:56:54;;;;;;;4.25;2.50;;;;;;;;;;1767177;81;21112;-73
2022/08/31 13:59:22;;;;;;;3.15;2.37;;;;;;;;;;1775321;80;21092;-73
2022/08/31 14:01:54;;;;;;;2.72;2.10;;;;;;;;;;1776178;81;21143;-73
2022/08/31 14:04:37;;;;;;;3.50;2.37;;;;;;;;;;1769483;81;21190;-73
2022/08/31 14:06:56;;;;;;;3.42;2.30;;;;;;;;;;1762996;81;21185;-73
2022/08/31 14:09:23;;;;;;;4.15;2.60;;;;;;;;;;1759726;81;21061;-73
2022/08/31 14:11:52;;;;;;;5.83;2.17;;;;;;;;;;1762922;81;21053;-73
2022/08/31 14:14:20;;;;;;;4.42;2.10;;;;;;;;;;1759148;81;21547;-73
2022/08/31 14:16:46;;;;;;;3.47;2.10;;;;;;;;;;1762935;81;21064;-72
2022/08/31 14:19:13;;;;;;;4.33;2.10;;;;;;;;;;1768610;81;21092;-72
2022/08/31 14:21:42;;;;;;;4.10;2.12;;;;;;;;;;1733640;82;22131;-73
2022/08/31 14:24:09;;;;;;;3.30;2.00;;;;;;;;;;1761931;81;21119;-73
2022/08/31 14:26:36;;;;;;;6.00;2.47;;;;;;;;;;1763751;81;21052;-73
2022/08/31 14:29:08;;;;;;;4.80;2.20;;;;;;;;;;1751595;81;21041;-73
2022/08/31 14:31:36;;;;;;;6.00;2.30;;;;;;;;;;1770942;80;21096;-73
2022/08/31 14:34:19;;;;;;;14.15;2.70;;;;;;;;;;1761010;81;21544;-73
2022/08/31 14:36:54;;;;;;;6.87;2.10;;;;;;;;;;1769498;81;21010;-73
2022/08/31 14:39:31;;;;;;;5.05;2.30;;;;;;;;;;1761487;81;21065;-73
2022/08/31 14:41:59;;;;;;;7.15;2.15;;;;;;;;;;1761327;81;21112;-73
2022/08/31 14:44:26;;;;;;;4.40;2.20;;;;;;;;;;1761876;81;21049;-73
2022/08/31 14:46:52;;;;;;;4.30;2.30;;;;;;;;;;1763516;81;21068;-72
2022/08/31 14:49:18;;;;;;;3.25;2.30;;;;;;;;;;1767366;79;21599;-73
2022/08/31 14:51:45;;;;;;;8.75;2.30;;;;;;;;;;1747957;82;21037;-71
2022/08/31 14:54:11;;;;;;;3.17;1.87;;;;;;;;;;1754553;81;21008;-72
2022/08/31 14:56:42;;;;;;;3.17;2.00;;;;;;;;;;1747651;82;21065;-70
2022/08/31 14:59:12;;;;;;;5.65;2.20;;;;;;;;;;1759605;80;21076;-74
2022/08/31 15:01:43;;;;;;;6.05;2.20;;;;;;;;;;1773954;79;21638;-71
2022/08/31 15:04:07;;;;;;;3.90;1.90;;;;;;;;;;1777730;80;21029;-71
2022/08/31 15:06:34;;;;;;;6.60;2.30;;;;;;;;;;1769356;80;21063;-71
2022/08/31 15:09:03;;;;;;;3.58;2.12;;;;;;;;;;1766689;79;21016;-70
2022/08/31 15:11:29;;;;;;;4.08;2.00;;;;;;;;;;1773819;80;21499;-71
2022/08/31 15:13:56;;;;;;;3.92;1.90;;;;;;;;;;1772866;80;21048;-72
2022/08/31 15:16:26;;;;;;;2.55;1.90;;;;;;;;;;1774261;80;21115;-72
2022/08/31 15:18:53;;;;;;;7.78;2.40;;;;;;;;;;1769492;80;21060;-72
2022/08/31 15:21:18;;;;;;;4.40;2.20;;;;;;;;;;1763794;80;21068;-72
2022/08/31 15:23:47;;;;;;;4.53;2.27;;;;;;;;;;1771234;80;21536;-71